createdAt,value
2023-01-17T00:05:12.379Z,92905.31
2023-01-17T00:10:26.327Z,92909.97
2023-01-17T00:15:30.964Z,92917.22
2023-01-17T00:20:51.514Z,92917.03
2023-01-17T00:26:06.064Z,92918.91
2023-01-17T00:31:09.934Z,92928.66
2023-01-17T00:36:12.225Z,92940.97
2023-01-17T00:41:17.955Z,92952.13
2023-01-17T00:46:38.987Z,92949.50
2023-01-17T00:51:59.751Z,92957.88
2023-01-17T00:57:22.026Z,92968.06
2023-01-17T01:02:43.509Z,92970.16
2023-01-17T01:08:04.015Z,92986.47
2023-01-17T01:13:25.102Z,92997.81
2023-01-17T01:18:45.581Z,92997.06
2023-01-17T01:24:06.082Z,93007.97
2023-01-17T01:29:26.783Z,93015.28
2023-01-17T01:34:28.628Z,93013.38
2023-01-17T01:39:30.678Z,93025.00
2023-01-17T01:44:50.920Z,93021.97
2023-01-17T01:49:53.004Z,93009.63
2023-01-17T01:55:01.888Z,93013.44
2023-01-17T02:00:14.694Z,93009.34
2023-01-17T02:05:20.731Z,92996.81
2023-01-17T02:10:22.433Z,93021.06
2023-01-17T02:15:32.177Z,93013.78
2023-01-17T02:20:52.228Z,93029.34
2023-01-17T02:26:38.544Z,93015.53
2023-01-17T02:31:40.191Z,93032.16
2023-01-17T02:36:55.915Z,93028.63
2023-01-17T02:42:02.909Z,93027.88
2023-01-17T02:47:24.246Z,93022.94
2023-01-17T02:52:51.193Z,93030.97
2023-01-17T02:58:16.041Z,93034.38
2023-01-17T03:03:53.920Z,93033.19
2023-01-17T03:08:55.883Z,93031.69
2023-01-17T03:13:58.519Z,93029.72
2023-01-17T03:19:00.786Z,93037.09
2023-01-17T03:24:03.377Z,93053.03
2023-01-17T03:29:05.188Z,93068.81
2023-01-17T03:34:06.985Z,93080.84
2023-01-17T03:39:08.844Z,93067.34
2023-01-17T03:44:10.688Z,93074.19
2023-01-17T03:49:12.449Z,93077.03
2023-01-17T03:54:14.374Z,93077.81
2023-01-17T03:59:16.121Z,93070.88
2023-01-17T04:04:18.890Z,93072.94
2023-01-17T04:09:20.801Z,93087.28
2023-01-17T04:14:22.499Z,93087.00
2023-01-17T04:19:24.491Z,93092.41
2023-01-17T04:24:26.165Z,93085.91
2023-01-17T04:29:27.880Z,93080.53
2023-01-17T04:34:29.569Z,93087.16
2023-01-17T04:39:31.518Z,93079.06
2023-01-17T04:44:33.587Z,93089.53
2023-01-17T04:49:35.228Z,93100.31
2023-01-17T04:54:36.877Z,93104.47
2023-01-17T04:59:38.779Z,93097.16
2023-01-17T05:04:40.841Z,93098.59
2023-01-17T05:09:43.980Z,93107.00
2023-01-17T05:14:45.807Z,93102.38
2023-01-17T05:19:47.587Z,93117.34
2023-01-17T05:24:49.446Z,93119.22
2023-01-17T05:29:51.492Z,93117.25
2023-01-17T05:34:53.287Z,93124.25
2023-01-17T05:39:55.106Z,93136.66
2023-01-17T05:44:56.988Z,93130.06
2023-01-17T05:50:00.035Z,93128.91
2023-01-17T05:55:01.743Z,93141.97
2023-01-17T06:00:03.977Z,93150.50
2023-01-17T06:05:07.088Z,93144.38
2023-01-17T06:10:10.872Z,93133.22
2023-01-17T06:15:14.772Z,93138.63
2023-01-17T06:20:16.711Z,93142.53
2023-01-17T06:25:18.598Z,93149.44
2023-01-17T06:30:20.517Z,93155.25
2023-01-17T06:35:23.273Z,93166.06
2023-01-17T06:40:26.181Z,93168.06
2023-01-17T06:45:30.147Z,93186.59
2023-01-17T06:50:33.061Z,93187.38
2023-01-17T06:55:35.100Z,93186.94
2023-01-17T07:00:39.422Z,93185.00
2023-01-17T07:05:42.348Z,93174.56
2023-01-17T07:10:48.262Z,93181.50
2023-01-17T07:15:49.923Z,93180.72
2023-01-17T07:20:52.381Z,93183.03
2023-01-17T07:25:59.642Z,93185.34
2023-01-17T07:31:08.196Z,93176.81
2023-01-17T07:36:10.534Z,93170.56
2023-01-17T07:41:12.525Z,93163.94
2023-01-17T07:46:15.397Z,93163.91
2023-01-17T07:51:18.016Z,93178.09
2023-01-17T07:56:19.963Z,93179.63
2023-01-17T08:01:21.748Z,93169.94
2023-01-17T08:06:26.249Z,93162.19
2023-01-17T08:11:28.025Z,93164.91
2023-01-17T08:16:30.156Z,93157.13
2023-01-17T08:21:32.139Z,93153.53
2023-01-17T08:26:34.121Z,93162.28
2023-01-17T08:31:36.257Z,93161.81
2023-01-17T08:36:37.947Z,93156.69
2023-01-17T08:41:39.951Z,93152.66
2023-01-17T08:46:41.877Z,93151.78
2023-01-17T08:51:43.591Z,93157.41
2023-01-17T08:56:46.985Z,93163.81
2023-01-17T09:01:49.006Z,93152.44
2023-01-17T09:06:50.868Z,93148.41
2023-01-17T09:11:53.425Z,93144.72
2023-01-17T09:16:55.189Z,93144.66
2023-01-17T09:21:57.575Z,93152.69
2023-01-17T09:27:00.034Z,93153.31
2023-01-17T09:32:02.208Z,93158.72
2023-01-17T09:37:04.143Z,93155.53
2023-01-17T09:42:39.146Z,93159.69
2023-01-17T09:47:45.372Z,93162.66
2023-01-17T09:52:48.090Z,93171.03
2023-01-17T09:58:06.407Z,93167.06
2023-01-17T10:03:41.257Z,93180.09
2023-01-17T10:09:20.365Z,93169.88
2023-01-17T10:14:29.584Z,93164.81
2023-01-17T10:19:53.323Z,93143.91
2023-01-17T10:25:13.417Z,93135.38
2023-01-17T10:30:29.181Z,93125.03
2023-01-17T10:35:36.938Z,93113.28
2023-01-17T10:40:41.375Z,93094.56
2023-01-17T10:45:53.111Z,93072.72
2023-01-17T10:51:30.828Z,93066.59
2023-01-17T10:56:34.676Z,93063.63
2023-01-17T11:01:36.480Z,93056.16
2023-01-17T11:06:49.738Z,93048.78
2023-01-17T11:12:01.851Z,93052.19
2023-01-17T11:17:07.056Z,93048.94
2023-01-17T11:22:15.318Z,93054.59
2023-01-17T11:27:24.540Z,93047.09
2023-01-17T11:32:32.685Z,93027.41
2023-01-17T11:37:35.813Z,93019.75
2023-01-17T11:42:38.792Z,93016.50
2023-01-17T11:47:40.592Z,93006.63
2023-01-17T11:52:42.338Z,93006.63
2023-01-17T11:57:50.685Z,92998.50
2023-01-17T12:03:10.544Z,92972.97
2023-01-17T12:08:40.339Z,92974.81
2023-01-17T12:14:08.193Z,92972.69
2023-01-17T12:19:37.994Z,92961.47
2023-01-17T12:24:50.135Z,92963.50
2023-01-17T12:30:03.039Z,92966.72
2023-01-17T12:35:27.922Z,92958.00
2023-01-17T12:40:39.993Z,92962.56
2023-01-17T12:45:47.573Z,92961.63
2023-01-17T12:51:08.841Z,92955.66
2023-01-17T12:56:24.436Z,92953.28
2023-01-17T13:01:43.388Z,92955.84
2023-01-17T13:07:06.532Z,92935.19
2023-01-17T13:12:14.481Z,92917.69
2023-01-17T13:17:32.119Z,92911.81
2023-01-17T13:22:37.145Z,92916.16
2023-01-17T13:27:50.973Z,92921.59
2023-01-17T13:33:17.368Z,92911.63
2023-01-17T13:38:54.927Z,92909.78
2023-01-17T13:44:18.570Z,92908.41
2023-01-17T13:49:41.261Z,92906.25
2023-01-17T13:54:51.737Z,92896.25
2023-01-17T13:59:54.805Z,92875.84
2023-01-17T14:05:09.387Z,92884.09
2023-01-17T14:10:37.630Z,92881.84
2023-01-17T14:15:49.952Z,92879.88
2023-01-17T14:21:04.776Z,92870.53
2023-01-17T14:26:21.191Z,92866.16
2023-01-17T14:31:23.948Z,92860.94
2023-01-17T14:36:30.429Z,92857.44
2023-01-17T14:41:32.307Z,92853.66
2023-01-17T14:46:34.743Z,92852.41
2023-01-17T14:51:37.372Z,92844.63
2023-01-17T14:56:39.350Z,92830.97
2023-01-17T15:01:42.108Z,92821.56
2023-01-17T15:06:45.737Z,92817.91
2023-01-17T15:11:51.101Z,92800.63
2023-01-17T15:16:53.343Z,92795.44
2023-01-17T15:21:55.438Z,92804.59
2023-01-17T15:26:57.210Z,92803.31
2023-01-17T15:32:01.278Z,92819.84
2023-01-17T15:37:22.376Z,92804.97
2023-01-17T15:42:27.385Z,92795.56
2023-01-17T15:47:31.367Z,92794.28
2023-01-17T15:52:33.712Z,92787.56
2023-01-17T15:57:39.010Z,92797.13
2023-01-17T16:02:58.765Z,92800.06
2023-01-17T16:08:04.509Z,92789.88
2023-01-17T16:13:08.254Z,92802.13
2023-01-17T16:18:17.824Z,92800.50
2023-01-17T16:23:19.422Z,92782.97
2023-01-17T16:28:21.224Z,92776.53
2023-01-17T16:33:23.004Z,92767.03
2023-01-17T16:38:24.842Z,92764.88
2023-01-17T16:43:26.655Z,92751.53
2023-01-17T16:48:28.428Z,92736.66
2023-01-17T16:53:30.367Z,92743.81
2023-01-17T16:58:32.016Z,92724.31
2023-01-17T17:03:33.815Z,92724.84
2023-01-17T17:08:36.958Z,92728.09
2023-01-17T17:13:41.032Z,92739.06
2023-01-17T17:18:45.181Z,92733.72
2023-01-17T17:23:51.345Z,92743.13
2023-01-17T17:28:55.275Z,92743.66
2023-01-17T17:34:00.751Z,92739.53
2023-01-17T17:39:06.697Z,92742.56
2023-01-17T17:44:08.913Z,92738.88
2023-01-17T17:49:10.710Z,92735.16
2023-01-17T17:54:14.252Z,92747.28
2023-01-17T17:59:20.337Z,92744.31
2023-01-17T18:04:22.198Z,92750.94
2023-01-17T18:09:26.694Z,92755.66
2023-01-17T18:14:28.925Z,92771.00
2023-01-17T18:19:42.590Z,92771.19
2023-01-17T18:24:45.161Z,92777.78
2023-01-17T18:29:49.298Z,92783.53
2023-01-17T18:34:51.792Z,92785.38
2023-01-17T18:39:55.473Z,92787.66
2023-01-17T18:44:57.169Z,92786.03
2023-01-17T18:49:59.226Z,92780.97
2023-01-17T18:55:01.110Z,92785.19
2023-01-17T19:00:04.406Z,92788.00
2023-01-17T19:05:08.833Z,92793.16
2023-01-17T19:10:11.081Z,92791.63
2023-01-17T19:15:12.898Z,92791.97
2023-01-17T19:20:14.799Z,92800.84
2023-01-17T19:25:16.973Z,92811.25
2023-01-17T19:30:21.831Z,92812.00
2023-01-17T19:35:23.844Z,92818.91
2023-01-17T19:40:26.768Z,92825.34
2023-01-17T19:50:46.256Z,92815.56
2023-01-17T19:55:48.348Z,92831.25
2023-01-17T20:00:52.807Z,92827.38
2023-01-17T20:05:57.918Z,92821.03
2023-01-17T20:11:09.095Z,92822.47
2023-01-17T20:16:14.143Z,92833.97
2023-01-17T20:21:18.722Z,92844.28
2023-01-17T20:26:38.570Z,92848.41
2023-01-17T20:31:42.130Z,92849.84
2023-01-17T20:36:43.986Z,92850.19
2023-01-17T20:41:46.476Z,92850.88
2023-01-17T20:46:48.458Z,92850.78
2023-01-17T20:51:50.348Z,92840.72
2023-01-17T20:56:53.893Z,92847.22
2023-01-17T21:01:55.977Z,92838.38
2023-01-17T21:06:58.260Z,92837.19
2023-01-17T21:12:01.888Z,92833.72
2023-01-17T21:17:03.817Z,92816.31
2023-01-17T21:22:05.716Z,92821.72
2023-01-17T21:27:07.372Z,92812.84
2023-01-17T21:32:09.677Z,92807.00
2023-01-17T21:37:11.451Z,92808.97
2023-01-17T21:42:13.244Z,92817.06
2023-01-17T21:47:15.432Z,92819.03
2023-01-17T21:52:17.413Z,92817.94
2023-01-17T21:57:39.802Z,92816.38
2023-01-17T22:02:46.334Z,92828.81
2023-01-17T22:08:07.076Z,92827.72
2023-01-17T22:13:10.200Z,92833.59
2023-01-17T22:18:13.237Z,92835.22
2023-01-17T22:23:15.428Z,92836.81
2023-01-17T22:28:17.936Z,92843.44
2023-01-17T22:33:21.070Z,92843.84
2023-01-17T22:38:24.162Z,92836.16
2023-01-17T22:43:27.329Z,92845.44
2023-01-17T22:48:31.253Z,92837.03
2023-01-17T22:53:33.120Z,92836.34
2023-01-17T22:58:36.686Z,92838.28
2023-01-17T23:03:41.074Z,92846.81
2023-01-17T23:08:45.634Z,92847.56
2023-01-17T23:13:48.570Z,92850.25
2023-01-17T23:19:09.206Z,92844.09
2023-01-17T23:24:11.062Z,92856.09
2023-01-17T23:29:13.057Z,92855.66
2023-01-17T23:34:14.956Z,92840.22
2023-01-17T23:39:16.965Z,92840.63
2023-01-17T23:44:19.494Z,92848.41
2023-01-17T23:49:21.399Z,92838.44
2023-01-17T23:54:23.130Z,92843.84
2023-01-17T23:59:25.029Z,92833.44
